createdAt,value
2018-09-12T00:00:36.978Z,81.56
2018-09-12T00:01:36.966Z,81.67
2018-09-12T00:02:36.937Z,81.67
2018-09-12T00:03:36.929Z,81.70
2018-09-12T00:04:36.914Z,81.81
2018-09-12T00:05:36.899Z,81.81
2018-09-12T00:06:36.888Z,81.70
2018-09-12T00:07:36.881Z,82.01
2018-09-12T00:08:36.870Z,82.01
2018-09-12T00:09:36.861Z,82.01
2018-09-12T00:10:36.849Z,81.81
2018-09-12T00:11:36.834Z,81.40
2018-09-12T00:12:36.826Z,81.60
2018-09-12T00:13:36.811Z,81.50
2018-09-12T00:14:36.802Z,81.50
2018-09-12T00:15:36.806Z,81.40
2018-09-12T00:16:36.791Z,81.29
2018-09-12T00:17:36.770Z,81.09
2018-09-12T00:18:36.759Z,80.99
2018-09-12T00:19:36.748Z,80.99
2018-09-12T00:20:36.736Z,80.89
2018-09-12T00:21:36.724Z,80.99
2018-09-12T00:22:36.714Z,81.29
2018-09-12T00:23:36.705Z,81.60
2018-09-12T00:24:36.694Z,81.90
2018-09-12T00:25:36.682Z,82.01
2018-09-12T00:26:36.681Z,82.42
2018-09-12T00:27:36.672Z,82.62
2018-09-12T00:28:36.652Z,82.72
2018-09-12T00:29:36.641Z,82.72
2018-09-12T00:30:36.631Z,83.03
2018-09-12T00:31:36.616Z,83.27
2018-09-12T00:32:36.609Z,83.37
2018-09-12T00:33:36.594Z,83.88
2018-09-12T00:34:36.585Z,83.88
2018-09-12T00:35:36.574Z,83.88
2018-09-12T00:36:36.576Z,84.08
2018-09-12T00:37:36.551Z,83.98
2018-09-12T00:38:36.539Z,84.19
2018-09-12T00:39:36.527Z,84.33
2018-09-12T00:40:36.518Z,84.42
2018-09-12T00:41:36.515Z,84.42
2018-09-12T00:42:36.495Z,84.42
2018-09-12T00:43:36.485Z,84.22
2018-09-12T00:44:36.472Z,84.53
2018-09-12T00:45:36.463Z,84.42
2018-09-12T00:46:36.454Z,84.53
2018-09-12T00:47:36.442Z,84.42
2018-09-12T00:48:36.427Z,84.53
2018-09-12T00:49:36.418Z,84.53
2018-09-12T00:50:36.406Z,84.63
2018-09-12T00:51:36.396Z,84.53
2018-09-12T00:52:36.384Z,84.33
2018-09-12T00:53:36.373Z,84.22
2018-09-12T00:54:36.365Z,85.24
2018-09-12T00:55:36.353Z,85.14
2018-09-12T00:56:36.339Z,85.55
2018-09-12T00:57:36.328Z,85.96
2018-09-12T00:58:36.320Z,86.05
2018-09-12T00:59:36.316Z,85.75
2018-09-12T01:00:36.297Z,85.55
2018-09-12T01:01:36.288Z,85.65
2018-09-12T01:02:36.276Z,85.35
2018-09-12T01:03:36.282Z,85.44
2018-09-12T01:04:36.256Z,85.55
2018-09-12T01:05:36.244Z,85.38
2018-09-12T01:06:36.231Z,85.49
2018-09-12T01:07:36.219Z,85.99
2018-09-12T01:08:36.207Z,85.90
2018-09-12T01:09:36.198Z,86.20
2018-09-12T01:10:36.186Z,86.30
2018-09-12T01:11:36.175Z,86.51
2018-09-12T01:12:36.166Z,86.45
2018-09-12T01:13:36.157Z,86.65
2018-09-12T01:14:36.152Z,86.75
2018-09-12T01:15:36.142Z,86.75
2018-09-12T01:16:36.123Z,86.75
2018-09-12T01:17:36.115Z,87.06
2018-09-12T01:18:36.105Z,86.75
2018-09-12T01:19:36.093Z,86.34
2018-09-12T01:20:36.077Z,86.24
2018-09-12T01:21:36.071Z,86.30
2018-09-12T01:22:36.057Z,86.51
2018-09-12T01:23:36.046Z,86.92
2018-09-12T01:24:36.041Z,87.22
2018-09-12T01:25:36.023Z,86.92
2018-09-12T01:26:36.012Z,86.85
2018-09-12T01:27:36.002Z,86.85
2018-09-12T01:28:35.989Z,86.75
2018-09-12T01:38:12.765Z,86.45
2018-09-12T01:39:12.743Z,86.65
2018-09-12T01:40:12.730Z,86.34
2018-09-12T01:41:12.725Z,86.04
2018-09-12T01:42:12.709Z,85.93
2018-09-12T01:43:12.700Z,85.83
2018-09-12T01:44:12.688Z,85.93
2018-09-12T01:45:12.679Z,86.04
2018-09-12T01:46:12.681Z,86.04
2018-09-12T01:47:12.665Z,86.04
2018-09-12T01:48:12.646Z,86.04
2018-09-12T01:49:12.632Z,85.83
2018-09-12T01:50:12.620Z,86.14
2018-09-12T01:51:12.612Z,86.34
2018-09-12T01:52:12.599Z,86.04
2018-09-12T01:53:12.586Z,86.45
2018-09-12T01:54:12.578Z,86.34
2018-09-12T01:55:12.567Z,86.54
2018-09-12T01:56:12.556Z,85.93
2018-09-12T01:57:12.545Z,85.93
2018-09-12T01:58:12.535Z,85.52
2018-09-12T01:59:12.522Z,86.24
2018-09-12T02:00:12.515Z,86.48
2018-09-12T02:01:12.502Z,86.99
2018-09-12T02:02:12.491Z,87.10
2018-09-12T02:03:12.536Z,87.40
2018-09-12T02:04:12.469Z,87.60
2018-09-12T02:05:12.458Z,87.81
2018-09-12T02:06:12.445Z,87.81
2018-09-12T02:07:12.434Z,88.12
2018-09-12T02:08:12.422Z,88.22
2018-09-12T02:09:12.411Z,88.22
2018-09-12T02:10:12.402Z,88.53
2018-09-12T02:11:12.400Z,88.22
2018-09-12T02:12:12.384Z,88.73
2018-09-12T02:13:12.369Z,89.03
2018-09-12T02:14:12.359Z,89.24
2018-09-12T02:15:12.348Z,89.08
2018-09-12T02:16:12.338Z,88.97
2018-09-12T02:17:12.327Z,88.56
2018-09-12T02:18:12.317Z,88.77
2018-09-12T02:19:12.303Z,88.47
2018-09-12T02:20:12.296Z,88.56
2018-09-12T02:21:12.283Z,88.47
2018-09-12T02:22:12.272Z,88.36
2018-09-12T02:23:12.260Z,88.26
2018-09-12T02:24:12.248Z,88.06
2018-09-12T02:25:12.238Z,88.36
2018-09-12T02:26:12.226Z,88.36
2018-09-12T02:27:12.214Z,88.67
2018-09-12T02:28:12.206Z,88.67
2018-09-12T02:29:12.195Z,88.47
2018-09-12T02:30:12.183Z,88.97
2018-09-12T02:31:12.175Z,89.28
2018-09-12T02:32:12.167Z,89.69
2018-09-12T02:33:12.151Z,90.03
2018-09-12T02:34:12.142Z,90.14
2018-09-12T02:35:12.130Z,90.14
2018-09-12T02:36:12.119Z,90.14
2018-09-12T02:37:12.115Z,90.35
2018-09-12T02:38:12.101Z,90.03
2018-09-12T02:39:12.094Z,90.24
2018-09-12T02:40:12.074Z,89.73
2018-09-12T02:41:12.063Z,89.94
2018-09-12T02:42:12.055Z,89.83
2018-09-12T02:43:12.040Z,90.03
2018-09-12T02:44:12.031Z,90.14
2018-09-12T02:45:12.019Z,90.24
2018-09-12T02:46:12.008Z,90.24
2018-09-12T02:47:11.999Z,90.24
2018-09-12T02:48:11.985Z,90.24
2018-09-12T02:49:11.976Z,90.44
2018-09-12T02:50:11.964Z,90.75
2018-09-12T02:51:11.956Z,90.79
2018-09-12T02:52:11.944Z,90.79
2018-09-12T02:53:11.934Z,90.89
2018-09-12T02:54:11.922Z,90.59
2018-09-12T02:55:11.912Z,90.69
2018-09-12T02:56:11.900Z,90.49
2018-09-12T02:57:11.889Z,90.59
2018-09-12T02:58:11.878Z,90.69
2018-09-12T02:59:11.866Z,90.69
2018-09-12T03:00:11.854Z,90.59
2018-09-12T03:01:11.848Z,90.49
2018-09-12T03:02:11.835Z,90.69
2018-09-12T03:03:11.822Z,90.79
2018-09-12T03:04:11.811Z,90.28
2018-09-12T03:05:11.803Z,90.18
2018-09-12T03:06:11.790Z,90.49
2018-09-12T03:07:11.778Z,90.59
2018-09-12T03:08:11.768Z,90.49
2018-09-12T03:09:11.759Z,90.08
2018-09-12T03:10:11.765Z,90.18
2018-09-12T03:11:11.735Z,90.28
2018-09-12T03:12:11.725Z,90.38
2018-09-12T03:13:11.723Z,90.38
2018-09-12T03:14:11.703Z,90.49
2018-09-12T03:15:11.692Z,90.69
2018-09-12T03:16:11.682Z,90.49
2018-09-12T03:17:11.671Z,90.49
2018-09-12T03:18:11.658Z,90.38
2018-09-12T03:19:11.647Z,90.08
2018-09-12T03:20:11.638Z,90.18
2018-09-12T03:21:11.720Z,90.28
2018-09-12T03:22:11.620Z,89.97
2018-09-12T03:23:11.604Z,90.08
2018-09-12T03:24:11.598Z,90.08
2018-09-12T03:25:11.584Z,90.08
2018-09-12T03:26:11.572Z,90.18
2018-09-12T03:27:11.565Z,89.88
2018-09-12T03:28:11.551Z,90.28
2018-09-12T03:29:11.540Z,90.18
2018-09-12T03:30:11.531Z,90.59
2018-09-12T03:31:11.521Z,90.69
2018-09-12T03:32:11.507Z,90.59
2018-09-12T03:33:11.495Z,90.38
2018-09-12T03:34:11.485Z,90.38
2018-09-12T03:35:11.474Z,90.49
2018-09-12T03:36:11.463Z,90.59
2018-09-12T03:37:11.453Z,90.28
2018-09-12T03:38:11.441Z,90.28
2018-09-12T03:39:11.532Z,90.59
2018-09-12T03:40:11.421Z,90.38
2018-09-12T03:41:11.409Z,90.59
2018-09-12T03:42:11.402Z,90.53
2018-09-12T03:43:11.407Z,90.53
2018-09-12T03:44:11.376Z,90.33
2018-09-12T03:45:11.364Z,90.42
2018-09-12T03:46:11.352Z,90.42
2018-09-12T03:47:11.343Z,90.53
2018-09-12T03:48:11.497Z,90.74
2018-09-12T03:49:11.321Z,90.53
2018-09-12T03:50:11.310Z,90.83
2018-09-12T03:51:11.299Z,91.04
2018-09-12T03:52:11.290Z,91.04
2018-09-12T03:53:11.284Z,91.14
2018-09-12T03:54:11.270Z,91.65
2018-09-12T03:55:11.257Z,91.96
2018-09-12T03:56:11.251Z,91.86
2018-09-12T03:57:11.230Z,91.96
2018-09-12T03:58:11.224Z,92.10
2018-09-12T03:59:11.212Z,92.21
2018-09-12T04:00:11.205Z,92.31
2018-09-12T04:01:11.189Z,92.41
2018-09-12T04:02:11.178Z,92.31
2018-09-12T04:03:11.165Z,92.31
2018-09-12T04:04:11.156Z,92.62
2018-09-12T04:05:11.147Z,92.82
2018-09-12T04:06:11.134Z,92.62
2018-09-12T04:07:11.125Z,92.62
2018-09-12T04:08:11.111Z,92.62
2018-09-12T04:09:11.105Z,92.72
2018-09-12T04:10:11.093Z,92.82
2018-09-12T04:11:11.080Z,92.72
2018-09-12T04:12:11.075Z,92.82
2018-09-12T04:13:11.056Z,92.92
2018-09-12T04:14:11.047Z,92.87
2018-09-12T04:15:11.041Z,92.87
2018-09-12T04:16:11.024Z,92.87
2018-09-12T04:17:11.013Z,92.76
2018-09-12T04:18:11.004Z,92.87
2018-09-12T04:19:10.991Z,92.46
2018-09-12T04:20:10.985Z,92.55
2018-09-12T04:21:10.971Z,92.51
2018-09-12T04:22:10.959Z,91.90
2018-09-12T04:23:10.951Z,92.01
2018-09-12T04:24:10.968Z,92.21
2018-09-12T04:25:10.925Z,92.41
2018-09-12T04:26:10.917Z,92.10
2018-09-12T04:27:10.904Z,92.35
2018-09-12T04:28:10.894Z,92.55
2018-09-12T04:29:10.884Z,92.55
2018-09-12T04:30:10.873Z,92.66
2018-09-12T04:31:10.863Z,92.55
2018-09-12T04:32:10.853Z,92.66
2018-09-12T04:33:10.842Z,92.66
2018-09-12T04:34:10.831Z,92.46
2018-09-12T04:35:10.817Z,92.46
2018-09-12T04:36:10.809Z,92.21
2018-09-12T04:37:10.797Z,92.10
2018-09-12T04:38:10.786Z,91.69
2018-09-12T04:39:10.774Z,91.90
2018-09-12T04:40:10.760Z,91.60
2018-09-12T04:41:10.752Z,91.69
2018-09-12T04:42:10.741Z,91.80
2018-09-12T04:43:10.728Z,91.49
2018-09-12T04:44:10.721Z,91.90
2018-09-12T04:45:10.709Z,91.90
2018-09-12T04:46:10.694Z,91.80
2018-09-12T04:47:10.685Z,91.39
2018-09-12T04:48:10.675Z,91.39
2018-09-12T04:49:10.662Z,91.19
2018-09-12T04:50:10.653Z,91.19
2018-09-12T04:51:10.639Z,91.29
2018-09-12T04:52:10.634Z,91.13
2018-09-12T04:53:10.638Z,91.33
2018-09-12T04:54:10.606Z,91.43
2018-09-12T04:55:10.608Z,91.43
2018-09-12T04:56:10.590Z,91.74
2018-09-12T04:57:10.583Z,91.74
2018-09-12T04:58:10.566Z,91.43
2018-09-12T04:59:10.554Z,91.64
2018-09-12T05:00:10.545Z,91.74
2018-09-12T05:01:10.533Z,91.84
2018-09-12T05:02:10.525Z,92.15
2018-09-12T05:03:10.512Z,92.15
2018-09-12T05:04:10.504Z,92.25
2018-09-12T05:05:10.499Z,92.15
2018-09-12T05:06:10.476Z,92.25
2018-09-12T05:07:10.468Z,91.94
2018-09-12T05:08:10.454Z,91.74
2018-09-12T05:09:10.446Z,91.84
2018-09-12T05:10:10.461Z,92.05
2018-09-12T05:11:10.422Z,91.94
2018-09-12T05:12:10.414Z,92.05
2018-09-12T05:13:10.413Z,91.94
2018-09-12T05:14:10.389Z,91.64
2018-09-12T05:15:10.379Z,91.43
2018-09-12T05:16:10.369Z,91.74
2018-09-12T05:17:10.359Z,91.94
2018-09-12T05:18:10.347Z,91.64
2018-09-12T05:19:10.340Z,91.84
2018-09-12T05:20:10.327Z,91.84
2018-09-12T05:21:10.312Z,91.84
2018-09-12T05:22:10.302Z,91.84
2018-09-12T05:23:10.294Z,91.74
2018-09-12T05:24:10.288Z,91.84
2018-09-12T05:25:10.273Z,91.64
2018-09-12T05:26:10.258Z,91.29
2018-09-12T05:27:10.248Z,91.08
2018-09-12T05:28:10.235Z,90.88
2018-09-12T05:29:10.223Z,90.67
2018-09-12T05:30:10.215Z,90.22
2018-09-12T05:31:10.213Z,88.81
2018-09-12T05:32:10.192Z,85.32
2018-09-12T05:33:10.183Z,82.80
2018-09-12T05:34:10.172Z,80.79
2018-09-12T05:35:10.191Z,78.82
2018-09-12T05:36:10.196Z,77.12
2018-09-12T05:37:10.139Z,75.76
2018-09-12T05:38:10.133Z,74.61
2018-09-12T05:39:10.118Z,73.66
2018-09-12T05:40:10.104Z,73.05
2018-09-12T05:41:10.094Z,72.00
2018-09-12T05:42:10.083Z,71.16
2018-09-12T05:43:10.072Z,70.62
2018-09-12T05:44:10.062Z,69.78
2018-09-12T05:45:10.049Z,69.14
2018-09-12T05:46:10.038Z,68.73
2018-09-12T05:47:10.030Z,68.83
2018-09-12T05:48:10.016Z,68.32
2018-09-12T05:49:10.007Z,68.22
2018-09-12T05:50:10.009Z,68.22
2018-09-12T05:51:09.997Z,67.99
2018-09-12T05:52:09.978Z,67.05
2018-09-12T05:53:09.964Z,66.94
2018-09-12T05:54:09.951Z,66.21
2018-09-12T05:55:09.945Z,65.50
2018-09-12T05:56:09.932Z,65.60
2018-09-12T05:57:09.922Z,64.86
2018-09-12T05:58:09.911Z,64.76
2018-09-12T05:59:09.899Z,64.86
2018-09-12T06:00:09.888Z,64.33
2018-09-12T06:01:09.876Z,63.42
2018-09-12T06:02:09.864Z,62.88
2018-09-12T06:03:09.852Z,62.12
2018-09-12T06:04:09.843Z,61.21
2018-09-12T06:05:09.830Z,60.47
2018-09-12T06:06:09.822Z,60.04
2018-09-12T06:07:10.020Z,59.21
2018-09-12T06:08:09.798Z,58.70
2018-09-12T06:09:09.787Z,58.41
2018-09-12T06:10:09.778Z,58.38
2018-09-12T06:11:09.766Z,57.77
2018-09-12T06:12:09.754Z,57.44
2018-09-12T06:13:09.742Z,57.24
2018-09-12T06:14:09.824Z,56.81
2018-09-12T06:15:09.722Z,56.18
2018-09-12T06:16:09.710Z,55.88
2018-09-12T06:17:09.698Z,55.55
2018-09-12T06:18:09.688Z,55.35
2018-09-12T06:19:09.677Z,55.15
2018-09-12T06:20:09.667Z,54.75
2018-09-12T06:21:09.654Z,54.62
2018-09-12T06:22:09.644Z,54.72
2018-09-12T06:23:09.633Z,54.10
2018-09-12T06:24:09.621Z,54.29
2018-09-12T06:25:09.609Z,53.99
2018-09-12T06:26:09.611Z,53.36
2018-09-12T06:27:09.592Z,53.36
2018-09-12T06:28:09.579Z,53.77
2018-09-12T06:29:09.571Z,53.77
2018-09-12T06:30:09.557Z,53.57
2018-09-12T06:31:09.550Z,53.36
2018-09-12T06:32:09.547Z,53.49
2018-09-12T06:33:09.522Z,53.86
2018-09-12T06:34:09.517Z,53.86
2018-09-12T06:35:09.501Z,53.44
2018-09-12T06:36:09.491Z,53.47
2018-09-12T06:37:09.482Z,53.34
2018-09-12T06:38:09.471Z,54.27
2018-09-12T06:39:09.458Z,53.27
2018-09-12T06:40:09.451Z,54.60
2018-09-12T06:41:09.436Z,53.90
2018-09-12T06:42:09.425Z,53.79
2018-09-12T06:43:09.415Z,53.99
2018-09-12T06:44:09.405Z,54.80
2018-09-12T06:45:09.390Z,54.29
2018-09-12T06:46:09.487Z,54.87
2018-09-12T06:47:09.369Z,53.97
2018-09-12T06:48:09.357Z,53.97
2018-09-12T06:49:09.347Z,54.37
2018-09-12T06:50:09.339Z,55.10
2018-09-12T06:51:09.332Z,55.07
2018-09-12T06:52:09.319Z,53.44
2018-09-12T06:53:09.302Z,54.65
2018-09-12T06:54:09.298Z,53.52
2018-09-12T06:55:09.282Z,53.36
2018-09-12T06:56:09.270Z,54.15
2018-09-12T06:57:09.258Z,53.64
2018-09-12T06:58:09.246Z,52.91
2018-09-12T06:59:09.241Z,52.89
2018-09-12T07:00:09.227Z,52.49
2018-09-12T07:01:09.349Z,52.77
2018-09-12T07:02:09.221Z,51.73
2018-09-12T07:03:09.192Z,51.16
2018-09-12T07:04:09.190Z,51.06
2018-09-12T07:05:09.177Z,51.46
2018-09-12T07:06:09.162Z,51.16
2018-09-12T07:07:09.149Z,51.16
2018-09-12T07:08:09.138Z,50.84
2018-09-12T07:09:09.128Z,51.56
2018-09-12T07:10:09.118Z,51.34
2018-09-12T07:11:09.103Z,50.81
2018-09-12T07:12:09.094Z,50.91
2018-09-12T07:13:09.083Z,50.61
2018-09-12T07:14:09.094Z,50.72
2018-09-12T07:15:09.064Z,50.49
2018-09-12T07:16:09.048Z,49.67
2018-09-12T07:17:09.039Z,49.67
2018-09-12T07:18:09.027Z,48.44
2018-09-12T07:19:09.015Z,48.69
2018-09-12T07:20:09.009Z,47.97
2018-09-12T07:21:08.994Z,47.47
2018-09-12T07:22:08.984Z,47.47
2018-09-12T07:23:08.974Z,47.38
2018-09-12T07:24:08.963Z,48.19
2018-09-12T07:25:08.952Z,47.90
2018-09-12T07:26:08.943Z,48.54
2018-09-12T07:27:08.929Z,49.79
2018-09-12T07:28:08.920Z,50.59
2018-09-12T07:29:08.906Z,51.01
2018-09-12T07:30:08.897Z,52.04
2018-09-12T07:31:08.885Z,52.04
2018-09-12T07:32:08.875Z,52.56
2018-09-12T07:33:08.869Z,53.07
2018-09-12T07:34:08.851Z,53.39
2018-09-12T07:35:08.845Z,54.52
2018-09-12T07:36:08.832Z,55.57
2018-09-12T07:37:08.821Z,56.43
2018-09-12T07:38:08.810Z,58.29
2018-09-12T07:39:08.801Z,59.46
2018-09-12T07:40:08.787Z,60.49
2018-09-12T07:41:08.776Z,61.12
2018-09-12T07:42:08.767Z,61.52
2018-09-12T07:43:08.753Z,62.13
2018-09-12T07:44:08.744Z,62.64
2018-09-12T07:45:08.735Z,62.00
2018-09-12T07:46:08.722Z,61.29
2018-09-12T07:47:08.712Z,61.60
2018-09-12T07:48:08.703Z,61.09
2018-09-12T07:49:08.779Z,61.46
2018-09-12T07:50:08.678Z,61.46
2018-09-12T07:51:08.673Z,61.66
2018-09-12T07:52:08.656Z,61.16
2018-09-12T07:53:08.647Z,61.66
2018-09-12T07:54:08.637Z,61.04
2018-09-12T07:55:08.630Z,61.34
2018-09-12T07:56:08.628Z,60.73
2018-09-12T07:57:08.603Z,60.51
2018-09-12T07:58:08.590Z,60.71
2018-09-12T07:59:08.587Z,60.60
2018-09-12T08:00:08.601Z,60.80
2018-09-12T08:01:08.561Z,59.97
2018-09-12T08:02:08.548Z,59.87
2018-09-12T08:03:08.600Z,60.04
2018-09-12T08:04:08.526Z,58.84
2018-09-12T08:05:08.591Z,59.44
2018-09-12T08:06:08.505Z,59.14
2018-09-12T08:07:08.493Z,59.24
2018-09-12T08:08:08.482Z,58.91
2018-09-12T08:09:08.480Z,59.21
2018-09-12T08:10:08.461Z,58.61
2018-09-12T08:11:08.452Z,58.61
2018-09-12T08:12:08.500Z,58.41
2018-09-12T08:13:08.428Z,58.31
2018-09-12T08:14:08.417Z,58.61
2018-09-12T08:15:08.406Z,58.31
2018-09-12T08:16:08.396Z,58.31
2018-09-12T08:17:08.392Z,58.31
2018-09-12T08:18:08.375Z,58.61
2018-09-12T08:19:08.440Z,58.71
2018-09-12T08:20:08.352Z,58.01
2018-09-12T08:21:08.342Z,57.51
2018-09-12T08:22:08.332Z,57.71
2018-09-12T08:23:08.317Z,58.08
2018-09-12T08:24:08.310Z,58.38
2018-09-12T08:25:08.298Z,58.55
2018-09-12T08:26:08.345Z,58.36
2018-09-12T08:27:08.276Z,56.55
2018-09-12T08:28:08.269Z,56.22
2018-09-12T08:29:08.255Z,56.62
2018-09-12T08:30:08.242Z,56.42
2018-09-12T08:31:08.238Z,56.22
2018-09-12T08:32:08.227Z,56.22
2018-09-12T08:33:08.260Z,56.40
2018-09-12T08:34:08.203Z,56.20
2018-09-12T08:35:08.191Z,55.16
2018-09-12T08:36:08.181Z,54.77
2018-09-12T08:37:08.167Z,54.16
2018-09-12T08:38:08.156Z,54.84
2018-09-12T08:39:08.151Z,53.64
2018-09-12T08:40:08.164Z,53.44
2018-09-12T08:41:08.123Z,53.84
2018-09-12T08:42:08.145Z,53.94
2018-09-12T08:43:08.102Z,54.54
2018-09-12T08:44:08.095Z,53.74
2018-09-12T08:45:08.083Z,54.04
2018-09-12T08:46:08.074Z,54.74
2018-09-12T08:47:08.062Z,54.94
2018-09-12T08:48:08.051Z,54.64
2018-09-12T08:49:08.040Z,54.82
2018-09-12T08:50:08.027Z,54.82
2018-09-12T08:51:08.018Z,52.52
2018-09-12T08:52:08.008Z,52.11
2018-09-12T08:53:07.998Z,53.51
2018-09-12T08:54:07.984Z,54.19
2018-09-12T08:55:07.973Z,54.19
2018-09-12T08:56:07.966Z,53.57
2018-09-12T08:57:07.953Z,51.97
2018-09-12T08:58:07.946Z,51.47
2018-09-12T08:59:07.931Z,51.17
2018-09-12T09:00:07.952Z,50.46
2018-09-12T09:01:07.912Z,50.37
2018-09-12T09:02:07.897Z,50.26
2018-09-12T09:03:07.890Z,50.04
2018-09-12T09:04:07.937Z,50.74
2018-09-12T09:05:07.872Z,50.84
2018-09-12T09:06:07.857Z,49.82
2018-09-12T09:07:07.848Z,49.52
2018-09-12T09:08:07.834Z,49.59
2018-09-12T09:09:07.827Z,50.39
2018-09-12T09:10:07.813Z,48.99
2018-09-12T09:11:07.803Z,49.40
2018-09-12T09:12:07.792Z,49.49
2018-09-12T09:13:07.779Z,49.79
2018-09-12T09:14:07.777Z,49.49
2018-09-12T09:15:07.806Z,49.40
2018-09-12T09:16:07.750Z,49.70
2018-09-12T09:17:07.739Z,50.29
2018-09-12T09:18:07.726Z,49.59
2018-09-12T09:19:07.719Z,50.00
2018-09-12T09:20:07.710Z,50.29
2018-09-12T09:21:07.700Z,50.39
2018-09-12T09:22:07.685Z,50.59
2018-09-12T09:23:07.673Z,50.19
2018-09-12T09:24:07.663Z,50.39
2018-09-12T09:25:07.651Z,50.19
2018-09-12T09:26:07.640Z,51.19
2018-09-12T09:27:07.628Z,50.79
2018-09-12T09:28:07.619Z,50.46
2018-09-12T09:29:07.608Z,50.67
2018-09-12T09:30:07.595Z,50.76
2018-09-12T09:31:07.587Z,50.37
2018-09-12T09:32:07.575Z,50.04
2018-09-12T09:33:07.566Z,49.95
2018-09-12T09:34:07.554Z,50.04
2018-09-12T09:35:07.570Z,50.22
2018-09-12T09:36:07.532Z,50.42
2018-09-12T09:37:07.520Z,50.02
2018-09-12T09:38:07.513Z,50.22
2018-09-12T09:39:07.499Z,49.72
2018-09-12T09:40:07.492Z,50.12
2018-09-12T09:41:07.545Z,50.62
2018-09-12T09:42:07.468Z,50.62
2018-09-12T09:43:07.462Z,50.52
2018-09-12T09:44:07.622Z,50.12
2018-09-12T09:45:07.435Z,50.02
2018-09-12T09:46:07.425Z,50.22
2018-09-12T09:47:07.413Z,51.02
2018-09-12T09:48:07.520Z,51.39
2018-09-12T09:49:07.401Z,50.42
2018-09-12T09:50:07.378Z,50.79
2018-09-12T09:51:07.367Z,51.00
2018-09-12T09:52:07.357Z,50.40
2018-09-12T09:53:07.346Z,50.29
2018-09-12T09:54:07.338Z,50.59
2018-09-12T09:55:07.394Z,50.70
2018-09-12T09:56:07.317Z,50.89
2018-09-12T09:57:07.303Z,51.39
2018-09-12T09:58:07.296Z,51.49
2018-09-12T09:59:07.282Z,51.79
2018-09-12T10:00:07.272Z,51.37
2018-09-12T10:01:07.260Z,51.77
2018-09-12T10:02:07.250Z,51.67
2018-09-12T10:03:07.236Z,51.47
2018-09-12T10:04:07.232Z,51.56
2018-09-12T10:05:07.215Z,51.86
2018-09-12T10:06:07.209Z,51.26
2018-09-12T10:07:07.193Z,51.86
2018-09-12T10:08:07.183Z,51.67
2018-09-12T10:09:07.172Z,51.86
2018-09-12T10:10:07.166Z,52.06
2018-09-12T10:11:07.151Z,52.06
2018-09-12T10:12:07.139Z,51.37
2018-09-12T10:13:07.128Z,50.57
2018-09-12T10:14:07.118Z,51.17
2018-09-12T10:15:07.106Z,51.69
2018-09-12T10:16:07.094Z,51.89
2018-09-12T10:17:07.085Z,51.79
2018-09-12T10:18:07.073Z,52.16
2018-09-12T10:19:07.064Z,51.86
2018-09-12T10:20:07.059Z,51.37
2018-09-12T10:21:07.043Z,51.47
2018-09-12T10:22:07.040Z,52.44
2018-09-12T10:23:07.021Z,50.45
2018-09-12T10:24:07.014Z,51.32
2018-09-12T10:25:06.997Z,50.35
2018-09-12T10:26:06.988Z,50.35
2018-09-12T10:27:06.977Z,50.65
2018-09-12T10:28:06.966Z,50.82
2018-09-12T10:29:06.954Z,50.82
2018-09-12T10:30:06.945Z,50.42
2018-09-12T10:31:06.933Z,50.03
2018-09-12T10:32:06.924Z,50.12
2018-09-12T10:33:06.916Z,50.42
2018-09-12T10:34:06.900Z,50.52
2018-09-12T10:35:06.891Z,49.63
2018-09-12T10:36:06.879Z,50.52
2018-09-12T10:37:06.867Z,49.73
2018-09-12T10:38:06.858Z,50.72
2018-09-12T10:39:06.853Z,50.92
2018-09-12T10:40:06.838Z,49.82
2018-09-12T10:41:06.865Z,50.10
2018-09-12T10:42:06.813Z,50.10
2018-09-12T10:43:06.803Z,49.40
2018-09-12T10:44:06.794Z,49.70
2018-09-12T10:45:06.780Z,49.38
2018-09-12T10:46:06.771Z,49.78
2018-09-12T10:47:06.761Z,49.26
2018-09-12T10:48:06.748Z,47.77
2018-09-12T10:49:06.741Z,48.56
2018-09-12T10:50:06.730Z,48.16
2018-09-12T10:51:06.717Z,48.26
2018-09-12T10:52:06.707Z,48.37
2018-09-12T10:53:06.695Z,48.46
2018-09-12T10:54:06.683Z,48.79
2018-09-12T10:55:06.672Z,49.48
2018-09-12T10:56:06.662Z,49.56
2018-09-12T10:57:06.652Z,49.65
2018-09-12T10:58:06.640Z,48.66
2018-09-12T10:59:06.680Z,48.49
2018-09-12T11:00:06.621Z,48.88
2018-09-12T11:01:06.608Z,49.28
2018-09-12T11:02:06.595Z,49.08
2018-09-12T11:03:06.588Z,49.50
2018-09-12T11:04:06.577Z,49.08
2018-09-12T11:05:06.568Z,48.98
2018-09-12T11:06:06.554Z,49.28
2018-09-12T11:07:06.541Z,48.98
2018-09-12T11:08:06.532Z,49.28
2018-09-12T11:09:06.520Z,49.18
2018-09-12T11:10:06.511Z,49.78
2018-09-12T11:11:06.502Z,49.48
2018-09-12T11:12:06.491Z,49.58
2018-09-12T11:13:06.480Z,49.10
2018-09-12T11:14:06.467Z,49.21
2018-09-12T11:15:06.461Z,49.50
2018-09-12T11:16:06.444Z,49.40
2018-09-12T11:17:06.437Z,49.80
2018-09-12T11:18:06.425Z,49.50
2018-09-12T11:19:06.414Z,49.60
2018-09-12T11:20:06.404Z,48.80
2018-09-12T11:21:06.394Z,49.18
2018-09-12T11:22:06.381Z,49.60
2018-09-12T11:23:06.372Z,49.38
2018-09-12T11:24:06.443Z,48.88
2018-09-12T11:25:06.353Z,48.49
2018-09-12T11:26:06.341Z,47.99
2018-09-12T11:27:06.351Z,47.77
2018-09-12T11:28:06.316Z,48.07
2018-09-12T11:29:06.309Z,48.07
2018-09-12T11:30:06.299Z,47.69
2018-09-12T11:31:06.285Z,47.97
2018-09-12T11:32:06.273Z,49.16
2018-09-12T11:33:06.264Z,47.74
2018-09-12T11:34:06.281Z,46.95
2018-09-12T11:35:06.246Z,46.85
2018-09-12T11:36:06.233Z,47.25
2018-09-12T11:37:06.220Z,47.25
2018-09-12T11:38:06.241Z,46.77
2018-09-12T11:39:06.201Z,47.17
2018-09-12T11:40:06.254Z,47.27
2018-09-12T11:41:06.176Z,47.59
2018-09-12T11:42:06.168Z,47.59
2018-09-12T11:43:06.154Z,48.09
2018-09-12T11:44:06.144Z,48.56
2018-09-12T11:45:06.132Z,47.97
2018-09-12T11:46:06.123Z,48.34
2018-09-12T11:47:06.113Z,47.37
2018-09-12T11:48:06.101Z,47.35
2018-09-12T11:49:06.128Z,47.25
2018-09-12T11:50:06.082Z,47.55
2018-09-12T11:51:06.071Z,47.35
2018-09-12T11:52:06.057Z,47.55
2018-09-12T11:53:06.050Z,47.35
2018-09-12T11:54:06.077Z,47.44
2018-09-12T11:55:06.026Z,47.65
2018-09-12T11:56:06.015Z,47.65
2018-09-12T11:57:06.002Z,48.04
2018-09-12T11:58:05.993Z,47.94
2018-09-12T11:59:05.983Z,48.04
2018-09-12T12:00:05.969Z,48.24
2018-09-12T12:01:05.962Z,47.94
2018-09-12T12:02:05.954Z,47.85
2018-09-12T12:03:05.937Z,48.04
2018-09-12T12:04:05.929Z,47.65
2018-09-12T12:05:05.917Z,48.34
2018-09-12T12:06:05.946Z,48.04
2018-09-12T12:07:05.897Z,47.74
2018-09-12T12:08:05.888Z,47.67
2018-09-12T12:09:05.879Z,47.86
2018-09-12T12:10:05.865Z,47.86
2018-09-12T12:11:05.852Z,48.44
2018-09-12T12:12:05.843Z,48.34
2018-09-12T12:13:05.833Z,48.34
2018-09-12T12:14:05.825Z,48.04
2018-09-12T12:15:05.810Z,47.94
2018-09-12T12:16:05.799Z,48.16
2018-09-12T12:17:05.793Z,48.46
2018-09-12T12:18:05.779Z,48.46
2018-09-12T12:19:05.774Z,48.37
2018-09-12T12:20:05.759Z,48.34
2018-09-12T12:21:05.747Z,47.65
2018-09-12T12:22:05.740Z,47.92
2018-09-12T12:23:05.739Z,47.92
2018-09-12T12:24:05.767Z,46.43
2018-09-12T12:25:05.754Z,46.92
2018-09-12T12:26:05.735Z,46.95
2018-09-12T12:27:05.719Z,47.25
2018-09-12T12:28:05.755Z,47.35
2018-09-12T12:29:05.660Z,47.15
2018-09-12T12:30:05.690Z,47.55
2018-09-12T12:31:05.676Z,47.05
2018-09-12T12:32:05.665Z,47.62
2018-09-12T12:33:05.707Z,47.03
2018-09-12T12:34:05.642Z,46.92
2018-09-12T12:35:05.639Z,46.83
2018-09-12T12:36:05.630Z,47.25
2018-09-12T12:37:05.578Z,47.15
2018-09-12T12:38:05.565Z,46.95
2018-09-12T12:39:05.556Z,46.85
2018-09-12T12:40:05.543Z,46.36
2018-09-12T12:41:05.534Z,46.73
2018-09-12T12:42:05.521Z,47.13
2018-09-12T12:43:05.511Z,46.63
2018-09-12T12:44:05.501Z,46.43
2018-09-12T12:45:05.489Z,46.13
2018-09-12T12:46:05.478Z,46.43
2018-09-12T12:47:05.469Z,46.33
2018-09-12T12:48:05.459Z,46.33
2018-09-12T12:49:05.447Z,46.63
2018-09-12T12:50:05.438Z,46.45
2018-09-12T12:51:05.425Z,46.43
2018-09-12T12:52:05.415Z,47.43
2018-09-12T12:53:05.405Z,47.13
2018-09-12T12:54:05.395Z,46.83
2018-09-12T12:55:05.384Z,47.03
2018-09-12T12:56:05.372Z,46.33
2018-09-12T12:57:05.362Z,45.94
2018-09-12T12:58:05.353Z,46.24
2018-09-12T12:59:05.340Z,45.84
2018-09-12T13:00:05.326Z,45.52
2018-09-12T13:01:05.316Z,46.51